This is the latest recevied weather packets stored in our database for station/object WBKK. If no packets are shown the sender has not sent any weather packets the latest 10 day(s).
| Time | Temp. | Humidity | Pressure | Rain* | Wind** | Luminosity | Snow |
|---|---|---|---|---|---|---|---|
| 1777903929 | 25° C | 88% | 1009 hPa | - | - | - | - |
| 1777900326 | 25° C | 94% | 1009 hPa | - | - | - | - |
| 1777896726 | 25° C | 94% | 1009 hPa | - | - | - | - |
| 1777894858 | 25° C | 94% | 1009 hPa | - | - | - | - |
| 1777893151 | 25° C | 94% | 1008 hPa | - | - | - | - |
| 1777891258 | 25° C | 94% | 1008 hPa | - | - | - | - |
| 1777889526 | 25° C | 94% | 1007 hPa | - | - | - | - |
| 1777888247 | 25° C | 94% | 1007 hPa | - | - | - | - |
| 1777887662 | 25° C | 94% | 1007 hPa | - | - | - | - |
| 1777886449 | 25° C | 10% | - | - | - | - | - |
| 1777885924 | 25° C | 10% | - | - | - | - | - |
| 1777884057 | 25.56° C | 94% | 1007 hPa | - | - | - | - |
| 1777883446 | 26.67° C | 94% | 1007 hPa | - | - | - | - |
| 1777882324 | 27.78° C | 88% | 1007 hPa | - | - | - | - |
| 1777881046 | 30° C | 79% | 1007 hPa | - | - | - | - |
| 1777880459 | 30.56° C | 74% | 1007 hPa | - | - | - | - |
| 1777878750 | 30.56° C | 74% | 1006 hPa | - | - | - | - |
| 1777876860 | 31.67° C | 70% | 1007 hPa | - | - | - | - |
| 1777875125 | 30.56° C | 74% | 1007 hPa | - | - | - | - |
| 1777873261 | 31.67° C | 74% | 1008 hPa | - | - | - | - |
| 1777871524 | 31.67° C | 74% | 1008 hPa | - | - | - | - |
| 1777869656 | 31.67° C | 74% | 1009 hPa | - | - | - | - |
| 1777867924 | 31.67° C | 74% | 1009 hPa | - | - | - | - |
| 1777866058 | 31.67° C | 74% | 1009 hPa | - | - | - | - |
| 1777864348 | 31.67° C | 74% | 1009 hPa | - | - | - | - |
* Rain since midnight (hover to see other rain measurements)
** Current wind speed in m/s (hover to see current wind gust speed)